createdAt,value
2022-11-21T00:05:58.475Z,7.87
2022-11-21T00:12:00.401Z,7.40
2022-11-21T00:18:05.643Z,7.60
2022-11-21T00:24:10.144Z,9.83
2022-11-21T00:30:12.597Z,8.73
2022-11-21T00:36:14.503Z,10.43
2022-11-21T00:42:16.416Z,9.83
2022-11-21T00:48:18.339Z,14.00
2022-11-21T00:54:20.522Z,10.57
2022-11-21T01:00:24.392Z,10.83
2022-11-21T01:06:26.321Z,12.73
2022-11-21T01:12:28.288Z,12.90
2022-11-21T01:18:30.261Z,9.70
2022-11-21T01:24:32.285Z,9.10
2022-11-21T01:30:34.236Z,12.47
2022-11-21T01:36:39.185Z,11.07
2022-11-21T01:43:03.064Z,9.80
2022-11-21T01:49:27.409Z,10.47
2022-11-21T01:55:34.488Z,9.10
2022-11-21T02:01:37.925Z,9.37
2022-11-21T02:07:43.241Z,10.03
2022-11-21T02:13:45.266Z,10.33
2022-11-21T02:19:56.874Z,13.83
2022-11-21T02:25:59.643Z,9.67
2022-11-21T02:32:08.827Z,11.43
2022-11-21T02:38:21.112Z,10.33
2022-11-21T02:44:31.734Z,12.37
2022-11-21T02:50:36.676Z,11.17
2022-11-21T02:56:38.634Z,10.87
2022-11-21T03:02:40.873Z,10.80
2022-11-21T03:08:42.782Z,12.97
2022-11-21T03:14:44.908Z,11.63
2022-11-21T03:21:14.587Z,12.63
2022-11-21T03:27:16.562Z,12.27
2022-11-21T03:39:34.377Z,10.73
2022-11-21T03:45:40.687Z,13.43
2022-11-21T03:51:43.872Z,11.57
2022-11-21T03:57:49.301Z,13.83
2022-11-21T04:03:52.313Z,10.03
2022-11-21T04:09:56.496Z,11.27
2022-11-21T04:15:58.578Z,15.43
2022-11-21T04:22:00.517Z,12.30
2022-11-21T04:28:04.508Z,11.13
2022-11-21T04:34:06.484Z,16.17
2022-11-21T04:40:09.175Z,10.30
2022-11-21T04:46:11.119Z,10.83
2022-11-21T04:52:13.127Z,12.40
2022-11-21T04:58:15.122Z,12.37
2022-11-21T05:04:17.166Z,11.17
2022-11-21T05:10:19.105Z,10.50
2022-11-21T05:16:21.014Z,10.47
2022-11-21T05:22:23.005Z,13.53
2022-11-21T05:28:25.121Z,11.00
2022-11-21T05:34:27.322Z,10.00
2022-11-21T05:40:29.472Z,12.30
2022-11-21T05:46:37.615Z,8.70
2022-11-21T05:52:39.537Z,11.23
2022-11-21T05:58:43.045Z,11.70
2022-11-21T06:04:44.945Z,9.20
2022-11-21T06:10:46.908Z,10.33
2022-11-21T06:16:50.130Z,9.17
2022-11-21T06:22:55.113Z,9.23
2022-11-21T06:29:07.156Z,10.50
2022-11-21T06:35:09.275Z,8.00
2022-11-21T06:41:31.941Z,8.47
2022-11-21T06:47:35.159Z,9.37
2022-11-21T06:53:37.105Z,9.67
2022-11-21T06:59:48.008Z,9.63
2022-11-21T07:05:50.797Z,15.83
2022-11-21T07:11:52.699Z,10.90
2022-11-21T07:17:54.601Z,12.93
2022-11-21T07:23:56.555Z,13.17
2022-11-21T07:29:58.624Z,12.43
2022-11-21T07:36:11.221Z,7.27
2022-11-21T07:42:13.138Z,9.77
2022-11-21T07:48:15.111Z,8.00
2022-11-21T07:54:17.162Z,4.97
2022-11-21T08:00:19.450Z,8.33
2022-11-21T08:06:21.534Z,14.03
2022-11-21T08:12:23.524Z,9.30
2022-11-21T08:18:31.760Z,7.77
2022-11-21T08:24:33.662Z,7.50
2022-11-21T08:30:36.725Z,9.53
2022-11-21T08:36:51.877Z,11.40
2022-11-21T08:43:08.387Z,13.73
2022-11-21T08:49:10.516Z,13.80
2022-11-21T08:55:12.896Z,11.67
2022-11-21T09:01:17.754Z,10.90
2022-11-21T09:07:19.748Z,12.20
2022-11-21T09:13:21.998Z,8.90
2022-11-21T09:19:36.441Z,11.33
2022-11-21T09:25:38.739Z,8.27
2022-11-21T09:31:44.335Z,6.30
2022-11-21T09:37:47.020Z,6.10
2022-11-21T09:44:15.751Z,5.40
2022-11-21T09:50:34.635Z,6.17
2022-11-21T09:56:42.216Z,4.77
2022-11-21T10:02:56.892Z,4.17
2022-11-21T10:09:44.520Z,5.97
2022-11-21T10:16:08.231Z,8.70
2022-11-21T10:30:07.144Z,9.70
2022-11-21T10:36:43.386Z,5.20
2022-11-21T10:43:00.139Z,5.90
2022-11-21T10:49:04.776Z,5.50
2022-11-21T10:55:14.783Z,7.63
2022-11-21T11:01:28.815Z,5.90
2022-11-21T11:07:30.908Z,4.97
2022-11-21T11:13:50.856Z,5.63
2022-11-21T11:20:32.111Z,4.00
2022-11-21T11:26:34.178Z,5.10
2022-11-21T11:32:41.373Z,4.97
2022-11-21T11:38:57.658Z,4.90
2022-11-21T11:45:36.610Z,6.40
2022-11-21T11:51:47.114Z,4.33
2022-11-21T11:57:54.567Z,5.03
2022-11-21T12:04:23.806Z,4.97
2022-11-21T12:11:23.701Z,4.60
2022-11-21T12:17:57.630Z,5.63
2022-11-21T12:24:25.124Z,5.00
2022-11-21T12:31:09.480Z,4.40
2022-11-21T12:37:26.248Z,4.67
2022-11-21T12:43:57.711Z,6.70
2022-11-21T12:50:49.025Z,5.30
2022-11-21T12:57:17.084Z,5.77
2022-11-21T13:04:05.426Z,4.87
2022-11-21T13:10:15.344Z,6.40
2022-11-21T13:16:37.051Z,5.70
2022-11-21T13:22:39.011Z,6.30
2022-11-21T13:28:46.042Z,6.33
2022-11-21T13:34:59.720Z,6.20
2022-11-21T13:41:20.133Z,5.53
2022-11-21T13:48:04.325Z,7.13
2022-11-21T13:54:29.113Z,12.07
2022-11-21T14:01:07.770Z,8.87
2022-11-21T14:07:35.511Z,9.83
2022-11-21T14:13:39.019Z,10.23
2022-11-21T14:19:42.119Z,10.23
2022-11-21T14:26:03.437Z,9.47
2022-11-21T14:32:06.219Z,20.50
2022-11-21T14:38:08.282Z,14.93
2022-11-21T14:44:10.135Z,9.10
2022-11-21T14:50:33.471Z,9.97
2022-11-21T14:56:35.457Z,9.53
2022-11-21T15:02:37.871Z,9.33
2022-11-21T15:15:19.028Z,10.83
2022-11-21T15:21:21.049Z,16.03
2022-11-21T15:27:32.803Z,13.90
2022-11-21T15:34:19.205Z,11.30
2022-11-21T15:40:20.488Z,13.90
2022-11-21T15:46:25.382Z,11.13
2022-11-21T15:52:27.325Z,18.93
2022-11-21T15:58:29.311Z,9.93
2022-11-21T16:04:31.257Z,40.30
2022-11-21T16:10:33.195Z,14.80
2022-11-21T16:16:43.155Z,12.17
2022-11-21T16:22:47.823Z,13.67
2022-11-21T16:28:58.007Z,17.13
2022-11-21T16:41:19.494Z,21.33
2022-11-21T16:47:21.558Z,14.10
2022-11-21T16:53:23.480Z,19.63
2022-11-21T16:59:25.406Z,15.67
2022-11-21T17:05:27.432Z,16.10
2022-11-21T17:11:31.417Z,17.77
2022-11-21T17:17:33.360Z,17.40
2022-11-21T17:23:49.514Z,20.67
2022-11-21T17:29:51.441Z,26.33
2022-11-21T17:35:53.422Z,18.50
2022-11-21T17:41:55.528Z,19.57
2022-11-21T17:47:57.557Z,24.00
2022-11-21T17:54:01.045Z,31.47
2022-11-21T18:00:04.984Z,21.30
2022-11-21T18:06:13.114Z,20.57
2022-11-21T18:12:15.063Z,18.43
2022-11-21T18:18:22.196Z,17.47
2022-11-21T18:24:24.131Z,20.30
2022-11-21T18:30:26.013Z,19.33
2022-11-21T18:36:33.812Z,21.27
2022-11-21T18:42:35.755Z,20.80
2022-11-21T18:49:00.647Z,17.43
2022-11-21T18:55:00.678Z,21.00
2022-11-21T19:01:12.445Z,21.13
2022-11-21T19:07:14.427Z,21.23
2022-11-21T19:13:16.421Z,22.37
2022-11-21T19:19:37.475Z,23.30
2022-11-21T19:25:41.755Z,19.97
2022-11-21T19:31:55.339Z,21.80
2022-11-21T19:37:57.271Z,20.37
2022-11-21T19:44:00.957Z,23.20
2022-11-21T19:50:03.411Z,27.37
2022-11-21T19:56:17.749Z,24.10
2022-11-21T20:02:21.559Z,28.13
2022-11-21T20:08:35.647Z,22.37
2022-11-21T20:14:37.715Z,25.43
2022-11-21T20:20:39.618Z,22.70
2022-11-21T20:26:42.162Z,27.10
2022-11-21T20:32:44.683Z,25.80
2022-11-21T20:39:02.506Z,26.10
2022-11-21T20:46:06.298Z,19.87
2022-11-21T20:57:55.282Z,23.03
2022-11-21T21:03:57.749Z,24.50
2022-11-21T21:10:02.150Z,22.90
2022-11-21T21:16:12.623Z,29.77
2022-11-21T21:22:14.672Z,23.23
2022-11-21T21:28:23.002Z,18.20
2022-11-21T21:34:25.077Z,19.90
2022-11-21T21:40:27.030Z,19.90
2022-11-21T21:46:28.939Z,19.30
2022-11-21T21:52:30.828Z,18.10
2022-11-21T21:58:36.043Z,21.23
2022-11-21T22:04:38.032Z,17.83
2022-11-21T22:10:39.988Z,17.13
2022-11-21T22:16:46.561Z,20.43
2022-11-21T22:22:48.502Z,25.07
2022-11-21T22:28:51.068Z,19.77
2022-11-21T22:34:52.984Z,19.80
2022-11-21T22:41:09.049Z,18.90
2022-11-21T22:47:11.042Z,20.90
2022-11-21T22:53:12.959Z,22.20
2022-11-21T22:59:15.038Z,20.97
2022-11-21T23:05:17.810Z,21.63
2022-11-21T23:11:24.329Z,21.67
2022-11-21T23:17:26.315Z,21.63
2022-11-21T23:23:28.653Z,26.10
2022-11-21T23:29:35.539Z,20.87
2022-11-21T23:35:37.676Z,17.30
2022-11-21T23:41:40.796Z,22.73
2022-11-21T23:47:42.705Z,20.33
2022-11-21T23:53:44.607Z,20.50
2022-11-21T23:59:53.470Z,20.80
